Time;durP1;ratioP1;P1;durP2;ratioP2;P2;SDS_P1;SDS_P2;PMS_P1;PMS_P2;Temp;Humidity;BMP_temperature;BMP_pressure;BME280_temperature;BME280_humidity;BME280_pressure;Samples;Min_cycle;Max_cycle;Signal;HPM_P1;HPM_P2
2021/05/29 00:02:16;;;;;;;1.98;1.80;;;;;;;;;;5044895;28;20084;-79
2021/05/29 00:04:42;;;;;;;2.38;2.17;;;;;;;;;;5052536;28;20056;-79
2021/05/29 00:07:08;;;;;;;2.03;1.90;;;;;;;;;;5055073;28;20026;-79
2021/05/29 00:09:34;;;;;;;2.92;2.63;;;;;;;;;;5053968;28;20037;-80
2021/05/29 00:12:01;;;;;;;2.15;1.95;;;;;;;;;;5053273;28;20049;-80
2021/05/29 00:14:29;;;;;;;2.42;2.22;;;;;;;;;;5044187;28;20034;-80
2021/05/29 00:16:55;;;;;;;2.97;1.98;;;;;;;;;;5038225;28;20434;-80
2021/05/29 00:19:21;;;;;;;2.03;1.92;;;;;;;;;;5039407;28;20055;-80
2021/05/29 00:21:47;;;;;;;1.83;1.45;;;;;;;;;;5041030;28;20029;-80
2021/05/29 00:24:13;;;;;;;1.45;1.35;;;;;;;;;;5038502;28;20025;-80
2021/05/29 00:26:40;;;;;;;2.70;2.25;;;;;;;;;;5037889;28;20021;-80
2021/05/29 00:29:06;;;;;;;2.53;2.33;;;;;;;;;;5040078;28;20427;-79
2021/05/29 00:31:32;;;;;;;2.70;2.50;;;;;;;;;;5037099;28;20029;-80
2021/05/29 00:33:58;;;;;;;2.90;2.33;;;;;;;;;;5036724;28;20540;-80
2021/05/29 00:36:24;;;;;;;3.28;2.78;;;;;;;;;;5037797;28;20044;-80
2021/05/29 00:38:50;;;;;;;3.00;2.08;;;;;;;;;;5038242;28;20017;-80
2021/05/29 00:41:17;;;;;;;2.35;2.13;;;;;;;;;;5037765;28;20040;-80
2021/05/29 00:43:44;;;;;;;2.50;2.30;;;;;;;;;;5037714;28;20022;-81
2021/05/29 00:46:10;;;;;;;2.10;1.85;;;;;;;;;;5038274;28;20021;-80
2021/05/29 00:48:37;;;;;;;2.55;2.35;;;;;;;;;;5040105;28;20022;-80
2021/05/29 00:51:04;;;;;;;4.95;2.88;;;;;;;;;;5037712;28;20030;-79
2021/05/29 00:53:31;;;;;;;3.10;2.80;;;;;;;;;;5039362;28;20112;-78
2021/05/29 00:55:57;;;;;;;3.17;2.75;;;;;;;;;;5037934;28;20354;-79
2021/05/29 00:58:25;;;;;;;5.60;3.70;;;;;;;;;;5035761;28;20053;-80
2021/05/29 01:00:52;;;;;;;4.47;3.38;;;;;;;;;;5037170;28;20057;-80
2021/05/29 01:03:18;;;;;;;3.45;3.13;;;;;;;;;;5039615;28;20022;-80
2021/05/29 01:05:45;;;;;;;4.22;2.83;;;;;;;;;;5038070;28;20429;-81
2021/05/29 01:08:11;;;;;;;3.70;2.80;;;;;;;;;;5037693;28;20076;-80
2021/05/29 01:10:38;;;;;;;2.83;2.60;;;;;;;;;;5037835;28;20021;-81
2021/05/29 01:13:08;;;;;;;2.67;2.22;;;;;;;;;;5038678;28;20382;-81
2021/05/29 01:15:42;;;;;;;2.42;2.22;;;;;;;;;;5040242;28;20018;-80
2021/05/29 01:18:11;;;;;;;2.17;1.98;;;;;;;;;;5049828;28;20017;-81
2021/05/29 01:20:37;;;;;;;2.55;2.35;;;;;;;;;;5052469;28;20025;-80
2021/05/29 01:23:04;;;;;;;1.77;1.67;;;;;;;;;;5049392;28;20025;-80
2021/05/29 01:25:31;;;;;;;6.50;2.80;;;;;;;;;;5043323;28;20056;-79
2021/05/29 01:28:05;;;;;;;2.70;2.50;;;;;;;;;;5040778;28;20083;-80
2021/05/29 01:30:33;;;;;;;3.67;2.47;;;;;;;;;;5042294;28;20034;-80
2021/05/29 01:33:00;;;;;;;3.17;2.88;;;;;;;;;;5050812;28;20018;-79
2021/05/29 01:35:26;;;;;;;2.63;2.42;;;;;;;;;;5055196;28;20038;-79
2021/05/29 01:37:54;;;;;;;2.28;2.08;;;;;;;;;;5049893;28;20053;-79
2021/05/29 01:40:20;;;;;;;2.72;2.53;;;;;;;;;;5043878;28;20029;-80
2021/05/29 01:42:46;;;;;;;2.75;2.55;;;;;;;;;;5038299;28;20052;-80
2021/05/29 01:45:13;;;;;;;3.13;2.83;;;;;;;;;;5038852;28;20026;-80
2021/05/29 01:47:43;;;;;;;2.28;2.08;;;;;;;;;;5038474;28;20027;-81
2021/05/29 01:50:14;;;;;;;2.30;2.00;;;;;;;;;;5043702;28;20029;-81
2021/05/29 01:52:58;;;;;;;3.75;3.45;;;;;;;;;;5041920;28;20021;-81
2021/05/29 01:55:26;;;;;;;2.38;2.17;;;;;;;;;;5042192;28;20053;-81
2021/05/29 01:57:52;;;;;;;2.00;1.90;;;;;;;;;;5072312;23;20042;-81
2021/05/29 02:00:19;;;;;;;2.30;2.10;;;;;;;;;;5074960;28;20032;-81
2021/05/29 02:02:45;;;;;;;2.30;2.10;;;;;;;;;;5089282;28;20036;-80
2021/05/29 02:05:16;;;;;;;2.65;2.13;;;;;;;;;;5088076;28;20439;-80
2021/05/29 02:07:42;;;;;;;3.15;2.83;;;;;;;;;;5090052;28;20069;-80
2021/05/29 02:10:10;;;;;;;3.20;2.85;;;;;;;;;;5082471;28;20106;-80
2021/05/29 02:12:46;;;;;;;2.85;2.30;;;;;;;;;;5071655;28;20028;-80
2021/05/29 02:15:15;;;;;;;1.80;1.70;;;;;;;;;;5072281;28;20108;-80
2021/05/29 02:17:41;;;;;;;1.98;1.75;;;;;;;;;;5068573;28;20020;-81
2021/05/29 02:20:07;;;;;;;2.35;2.15;;;;;;;;;;5068837;28;20052;-80
2021/05/29 02:22:34;;;;;;;2.53;2.33;;;;;;;;;;5069450;28;20047;-80
2021/05/29 02:25:00;;;;;;;6.47;3.63;;;;;;;;;;5067672;28;20053;-82
2021/05/29 02:27:26;;;;;;;3.55;2.90;;;;;;;;;;5068090;28;20129;-80
2021/05/29 02:29:52;;;;;;;2.85;2.10;;;;;;;;;;5075883;28;20060;-80
2021/05/29 02:32:18;;;;;;;2.13;1.92;;;;;;;;;;5068789;28;20135;-81
2021/05/29 02:34:45;;;;;;;1.50;1.40;;;;;;;;;;5068016;28;20028;-80
2021/05/29 02:37:11;;;;;;;2.63;2.10;;;;;;;;;;5067216;28;20040;-80
2021/05/29 02:39:37;;;;;;;2.72;2.53;;;;;;;;;;5069779;28;20021;-80
2021/05/29 02:42:03;;;;;;;3.47;2.95;;;;;;;;;;5068343;28;20032;-80
2021/05/29 02:44:29;;;;;;;3.92;3.28;;;;;;;;;;5067129;28;20039;-82
2021/05/29 02:46:55;;;;;;;2.70;2.47;;;;;;;;;;5067929;28;20051;-81
2021/05/29 02:49:21;;;;;;;2.78;2.10;;;;;;;;;;5069495;28;20044;-81
2021/05/29 02:51:47;;;;;;;4.00;3.38;;;;;;;;;;5067389;28;20033;-81
2021/05/29 02:54:13;;;;;;;4.28;3.28;;;;;;;;;;5068801;28;20039;-80
2021/05/29 02:56:40;;;;;;;2.90;2.70;;;;;;;;;;5069310;28;20045;-81
2021/05/29 02:59:06;;;;;;;5.28;2.95;;;;;;;;;;5075812;28;20039;-81
2021/05/29 03:01:35;;;;;;;3.75;2.97;;;;;;;;;;5069052;28;20025;-80
2021/05/29 03:04:01;;;;;;;2.58;2.38;;;;;;;;;;5064761;28;20048;-80
2021/05/29 03:06:27;;;;;;;3.53;3.10;;;;;;;;;;5069248;28;20025;-81
2021/05/29 03:08:55;;;;;;;2.80;2.60;;;;;;;;;;5068306;28;20055;-81
2021/05/29 03:11:23;;;;;;;3.03;2.72;;;;;;;;;;5069358;28;20021;-81
2021/05/29 03:13:49;;;;;;;2.70;2.50;;;;;;;;;;5068892;28;20029;-81
2021/05/29 03:16:15;;;;;;;3.85;2.90;;;;;;;;;;5069560;28;20037;-81
2021/05/29 03:18:41;;;;;;;3.17;2.88;;;;;;;;;;5067540;28;20043;-81
2021/05/29 03:21:07;;;;;;;3.65;3.22;;;;;;;;;;5068484;28;20390;-81
2021/05/29 03:23:33;;;;;;;3.25;2.97;;;;;;;;;;5067332;28;20040;-81
2021/05/29 03:25:59;;;;;;;5.68;3.92;;;;;;;;;;5068857;28;20024;-80
2021/05/29 03:28:26;;;;;;;4.60;4.20;;;;;;;;;;5067520;28;20025;-80
2021/05/29 03:30:52;;;;;;;3.63;3.33;;;;;;;;;;5075379;28;20063;-81
2021/05/29 03:33:18;;;;;;;3.05;2.80;;;;;;;;;;5067521;28;20102;-81
2021/05/29 03:35:44;;;;;;;3.22;2.75;;;;;;;;;;5068436;28;20041;-81
2021/05/29 03:38:10;;;;;;;3.13;2.72;;;;;;;;;;5069924;28;20013;-80
2021/05/29 03:40:36;;;;;;;2.63;2.22;;;;;;;;;;5072679;28;20029;-80
2021/05/29 03:43:02;;;;;;;2.58;2.38;;;;;;;;;;5063372;28;20138;-79
2021/05/29 03:45:28;;;;;;;2.42;2.22;;;;;;;;;;5067648;28;20032;-80
2021/05/29 03:47:55;;;;;;;2.95;2.58;;;;;;;;;;5067234;28;20085;-81
2021/05/29 03:50:23;;;;;;;3.03;2.72;;;;;;;;;;5067442;28;20020;-80
2021/05/29 03:52:49;;;;;;;3.17;2.88;;;;;;;;;;5064043;28;20035;-81
2021/05/29 03:55:16;;;;;;;5.13;3.83;;;;;;;;;;5068176;28;20029;-79
2021/05/29 03:57:43;;;;;;;4.13;3.15;;;;;;;;;;5070718;28;20051;-79
2021/05/29 04:00:10;;;;;;;3.60;3.28;;;;;;;;;;5076560;28;20024;-80
2021/05/29 04:02:36;;;;;;;4.28;3.30;;;;;;;;;;5067122;28;20025;-80
2021/05/29 04:05:03;;;;;;;3.58;3.28;;;;;;;;;;5070259;28;20085;-81
2021/05/29 04:07:29;;;;;;;3.90;3.10;;;;;;;;;;5066653;28;20059;-81
2021/05/29 04:09:55;;;;;;;3.38;3.08;;;;;;;;;;5067250;28;20021;-80
2021/05/29 04:12:21;;;;;;;2.97;2.78;;;;;;;;;;5067569;28;20477;-80
2021/05/29 04:14:48;;;;;;;4.65;2.67;;;;;;;;;;5067505;28;20029;-80
2021/05/29 04:17:15;;;;;;;3.03;2.17;;;;;;;;;;5068366;28;20021;-80
2021/05/29 04:19:41;;;;;;;2.58;2.38;;;;;;;;;;5067072;28;20071;-80
2021/05/29 04:22:07;;;;;;;2.20;2.00;;;;;;;;;;5064847;28;20021;-80
2021/05/29 04:24:33;;;;;;;4.38;3.15;;;;;;;;;;5065382;28;20025;-80
2021/05/29 04:27:00;;;;;;;3.10;2.80;;;;;;;;;;5073653;28;20033;-81
2021/05/29 04:29:26;;;;;;;5.10;3.70;;;;;;;;;;5080414;28;20025;-83
2021/05/29 04:31:52;;;;;;;5.95;3.42;;;;;;;;;;5067624;28;20092;-83
2021/05/29 04:34:18;;;;;;;3.28;2.50;;;;;;;;;;5068095;28;20024;-83
2021/05/29 04:36:44;;;;;;;3.28;2.47;;;;;;;;;;5067169;28;20021;-82
2021/05/29 04:39:10;;;;;;;2.78;2.25;;;;;;;;;;5070836;28;20010;-82
2021/05/29 04:41:36;;;;;;;2.60;2.30;;;;;;;;;;5069988;28;20040;-82
2021/05/29 04:44:02;;;;;;;2.10;1.92;;;;;;;;;;5064771;28;20029;-82
2021/05/29 04:46:29;;;;;;;2.45;2.22;;;;;;;;;;5071572;28;20025;-80
2021/05/29 04:48:55;;;;;;;2.30;2.10;;;;;;;;;;5072223;28;20029;-80
2021/05/29 04:51:21;;;;;;;6.30;3.60;;;;;;;;;;5073865;28;20016;-81
2021/05/29 04:53:49;;;;;;;3.65;3.13;;;;;;;;;;5073710;28;20083;-81
2021/05/29 04:56:16;;;;;;;2.25;2.00;;;;;;;;;;5073965;28;20021;-80
2021/05/29 04:58:42;;;;;;;3.30;2.60;;;;;;;;;;5073963;28;20029;-80
2021/05/29 05:01:10;;;;;;;3.97;3.10;;;;;;;;;;5075528;28;20034;-80
2021/05/29 05:03:37;;;;;;;4.50;2.70;;;;;;;;;;5081057;28;20086;-80
2021/05/29 05:06:03;;;;;;;3.03;2.40;;;;;;;;;;5070880;28;20037;-80
2021/05/29 05:08:29;;;;;;;2.08;1.95;;;;;;;;;;5074928;28;20024;-81
2021/05/29 05:10:56;;;;;;;2.47;2.25;;;;;;;;;;5073303;28;20032;-82
2021/05/29 05:13:23;;;;;;;2.00;1.77;;;;;;;;;;5072794;28;20017;-81
2021/05/29 05:15:49;;;;;;;1.55;1.45;;;;;;;;;;5073210;28;20033;-81
2021/05/29 05:18:15;;;;;;;1.30;1.20;;;;;;;;;;5070999;28;20044;-82
2021/05/29 05:20:42;;;;;;;1.20;1.10;;;;;;;;;;5062166;28;20123;-82
2021/05/29 05:23:21;;;;;;;1.58;1.48;;;;;;;;;;5061439;28;20029;-78
2021/05/29 05:25:47;;;;;;;1.20;1.10;;;;;;;;;;5062966;28;20037;-77
2021/05/29 05:28:13;;;;;;;1.67;1.50;;;;;;;;;;5084392;28;20070;-77
2021/05/29 05:30:39;;;;;;;1.15;1.10;;;;;;;;;;5087288;28;20024;-79
2021/05/29 05:33:06;;;;;;;0.95;0.95;;;;;;;;;;5086279;28;20024;-81
2021/05/29 05:35:32;;;;;;;1.38;1.10;;;;;;;;;;5064720;28;20025;-83
2021/05/29 05:37:58;;;;;;;1.23;1.02;;;;;;;;;;5066187;28;20081;-83
2021/05/29 05:40:25;;;;;;;0.80;0.80;;;;;;;;;;5068293;28;20025;-82
2021/05/29 05:42:51;;;;;;;0.82;0.82;;;;;;;;;;5070416;28;20096;-81
2021/05/29 05:45:17;;;;;;;1.10;1.08;;;;;;;;;;5072313;28;20033;-81
2021/05/29 05:47:43;;;;;;;2.03;1.80;;;;;;;;;;5068311;28;20171;-80
2021/05/29 05:50:10;;;;;;;1.30;1.20;;;;;;;;;;5069621;28;20039;-81
2021/05/29 05:52:37;;;;;;;1.27;1.17;;;;;;;;;;5067672;28;20028;-80
2021/05/29 05:55:04;;;;;;;1.58;1.48;;;;;;;;;;5066313;28;20379;-79
2021/05/29 05:57:32;;;;;;;2.63;1.50;;;;;;;;;;5067002;28;20032;-81
2021/05/29 05:59:58;;;;;;;1.33;1.13;;;;;;;;;;5066578;28;20033;-81
2021/05/29 06:02:24;;;;;;;1.27;0.93;;;;;;;;;;5070447;28;20017;-81
2021/05/29 06:04:50;;;;;;;0.82;0.80;;;;;;;;;;5074948;28;20053;-81
2021/05/29 06:07:16;;;;;;;0.80;0.80;;;;;;;;;;5071961;28;20116;-80
2021/05/29 06:09:42;;;;;;;0.85;0.85;;;;;;;;;;5075058;28;20025;-81
2021/05/29 06:12:09;;;;;;;1.17;1.00;;;;;;;;;;5065214;28;20043;-81
2021/05/29 06:20:08;;;;;;;1.30;1.20;;;;;;;;;;5064385;28;20052;-82
2021/05/29 06:22:34;;;;;;;2.30;1.67;;;;;;;;;;5066905;28;20439;-80
2021/05/29 06:25:00;;;;;;;1.52;1.42;;;;;;;;;;5068111;28;20029;-80
2021/05/29 06:27:26;;;;;;;2.45;1.40;;;;;;;;;;5063174;28;20071;-82
2021/05/29 06:29:52;;;;;;;2.47;1.40;;;;;;;;;;5060625;28;20032;-82
2021/05/29 06:32:18;;;;;;;1.92;1.67;;;;;;;;;;5065120;28;20036;-82
2021/05/29 06:34:44;;;;;;;1.92;1.42;;;;;;;;;;5065478;28;20354;-82
2021/05/29 06:37:10;;;;;;;1.75;1.35;;;;;;;;;;5059519;28;20028;-82
2021/05/29 06:39:37;;;;;;;2.00;1.90;;;;;;;;;;5061243;28;20036;-82
2021/05/29 06:42:04;;;;;;;1.45;1.38;;;;;;;;;;5061011;28;20048;-82
2021/05/29 06:44:30;;;;;;;1.92;1.83;;;;;;;;;;5061706;28;20067;-81
2021/05/29 06:46:56;;;;;;;1.50;1.40;;;;;;;;;;5061160;28;20036;-81
2021/05/29 06:49:22;;;;;;;2.15;1.45;;;;;;;;;;5061096;28;20048;-80
2021/05/29 06:51:55;;;;;;;1.95;1.40;;;;;;;;;;5060043;28;20487;-81
2021/05/29 06:54:37;;;;;;;2.38;1.17;;;;;;;;;;5047398;28;20440;-82
2021/05/29 06:59:48;;;;;;;1.10;1.10;;;;;;;;;;5061575;28;20401;-81
2021/05/29 07:02:14;;;;;;;0.90;0.90;;;;;;;;;;5076502;28;20078;-80
2021/05/29 07:04:40;;;;;;;1.35;1.02;;;;;;;;;;5077794;28;20036;-81
2021/05/29 07:07:06;;;;;;;1.17;0.90;;;;;;;;;;5079791;28;20715;-81
2021/05/29 07:09:33;;;;;;;1.58;1.05;;;;;;;;;;5079966;28;20028;-80
2021/05/29 07:11:59;;;;;;;1.05;0.95;;;;;;;;;;5080439;28;20067;-81
2021/05/29 07:14:25;;;;;;;4.47;1.55;;;;;;;;;;5063633;28;20064;-81
2021/05/29 07:16:55;;;;;;;1.65;1.20;;;;;;;;;;5065164;28;20009;-80
2021/05/29 07:19:21;;;;;;;1.00;1.00;;;;;;;;;;5076772;28;20021;-78
2021/05/29 07:21:49;;;;;;;0.98;0.98;;;;;;;;;;5066566;28;20033;-81
2021/05/29 07:24:15;;;;;;;1.13;1.02;;;;;;;;;;5061103;28;20053;-80
2021/05/29 07:26:41;;;;;;;1.38;1.10;;;;;;;;;;5060986;28;20025;-80
2021/05/29 07:29:08;;;;;;;0.98;0.90;;;;;;;;;;5062415;28;20025;-80
2021/05/29 07:31:34;;;;;;;1.10;0.90;;;;;;;;;;5067097;28;20049;-80
2021/05/29 07:34:00;;;;;;;0.85;0.75;;;;;;;;;;5066248;28;20064;-81
2021/05/29 07:36:26;;;;;;;0.77;0.73;;;;;;;;;;5061743;28;20028;-82
2021/05/29 07:38:52;;;;;;;1.60;0.98;;;;;;;;;;5062575;28;20029;-82
2021/05/29 07:41:20;;;;;;;2.03;1.40;;;;;;;;;;5064138;28;20489;-82
2021/05/29 07:43:46;;;;;;;1.42;1.38;;;;;;;;;;5064864;28;20025;-82
2021/05/29 07:46:13;;;;;;;1.90;1.25;;;;;;;;;;5065117;28;20025;-82
2021/05/29 07:48:39;;;;;;;1.50;1.10;;;;;;;;;;5063742;28;20048;-82
2021/05/29 07:51:05;;;;;;;2.30;1.63;;;;;;;;;;5063654;28;20029;-83
2021/05/29 07:53:36;;;;;;;1.70;1.33;;;;;;;;;;5064514;28;20033;-81
2021/05/29 07:56:05;;;;;;;2.05;1.65;;;;;;;;;;5064570;28;20025;-82
2021/05/29 07:58:31;;;;;;;1.77;1.38;;;;;;;;;;5061147;22;20069;-80
2021/05/29 08:00:57;;;;;;;1.80;1.70;;;;;;;;;;5008988;28;20029;-80
2021/05/29 08:03:24;;;;;;;1.50;1.23;;;;;;;;;;5013374;28;20035;-81
2021/05/29 08:05:52;;;;;;;0.90;0.90;;;;;;;;;;5010663;28;20092;-80
2021/05/29 08:08:19;;;;;;;1.65;1.10;;;;;;;;;;5013958;28;20022;-81
2021/05/29 08:10:47;;;;;;;3.67;1.38;;;;;;;;;;5009270;28;20072;-80
2021/05/29 08:13:13;;;;;;;1.33;1.20;;;;;;;;;;5010779;28;20105;-80
2021/05/29 08:15:39;;;;;;;1.40;1.30;;;;;;;;;;5022781;28;20041;-80
2021/05/29 08:18:05;;;;;;;1.25;0.73;;;;;;;;;;5007739;28;20026;-80
2021/05/29 08:20:31;;;;;;;0.65;0.65;;;;;;;;;;5007905;28;20022;-79
2021/05/29 08:22:57;;;;;;;0.57;0.57;;;;;;;;;;5024000;28;20034;-80
2021/05/29 08:25:23;;;;;;;1.63;1.45;;;;;;;;;;5042255;28;20029;-79
2021/05/29 08:27:49;;;;;;;1.52;1.42;;;;;;;;;;5042313;28;20061;-80
2021/05/29 08:30:15;;;;;;;1.15;1.13;;;;;;;;;;5026658;28;20057;-80
2021/05/29 08:32:42;;;;;;;1.77;1.63;;;;;;;;;;5011841;28;20057;-80
2021/05/29 08:35:09;;;;;;;1.75;1.10;;;;;;;;;;5036440;28;20351;-79
2021/05/29 08:37:35;;;;;;;1.13;1.02;;;;;;;;;;5026627;28;20368;-79
2021/05/29 08:40:01;;;;;;;1.10;0.93;;;;;;;;;;5040859;28;20030;-79
2021/05/29 08:42:27;;;;;;;1.23;1.20;;;;;;;;;;5019262;28;20046;-80
2021/05/29 08:44:58;;;;;;;2.15;1.27;;;;;;;;;;5006028;28;20026;-79
2021/05/29 08:47:24;;;;;;;1.23;0.80;;;;;;;;;;5006280;28;20022;-80
2021/05/29 08:49:51;;;;;;;2.58;0.95;;;;;;;;;;5022029;28;20099;-80
2021/05/29 08:52:17;;;;;;;3.22;1.13;;;;;;;;;;5009088;28;20100;-80
2021/05/29 08:54:43;;;;;;;3.22;0.95;;;;;;;;;;5025484;28;20032;-79
2021/05/29 08:57:09;;;;;;;1.75;1.65;;;;;;;;;;5024936;28;20026;-80
2021/05/29 08:59:35;;;;;;;1.20;1.10;;;;;;;;;;5025342;28;20172;-80
2021/05/29 09:02:03;;;;;;;0.75;0.75;;;;;;;;;;5030411;28;20056;-80
2021/05/29 09:04:29;;;;;;;1.63;0.90;;;;;;;;;;5036182;28;20037;-80
2021/05/29 09:06:56;;;;;;;1.30;0.80;;;;;;;;;;5041499;28;20025;-79
2021/05/29 09:09:22;;;;;;;2.50;0.93;;;;;;;;;;5025135;28;20091;-80
2021/05/29 09:11:49;;;;;;;2.47;1.02;;;;;;;;;;5017483;28;20038;-80
2021/05/29 09:14:21;;;;;;;2.00;1.20;;;;;;;;;;5020196;28;20017;-81
2021/05/29 09:17:06;;;;;;;0.80;0.80;;;;;;;;;;5033616;28;20042;-81
2021/05/29 09:19:52;;;;;;;1.10;1.00;;;;;;;;;;5048058;28;20026;-80
2021/05/29 09:22:25;;;;;;;1.17;1.00;;;;;;;;;;5039367;28;20026;-81
2021/05/29 09:25:02;;;;;;;1.38;0.88;;;;;;;;;;5012866;28;20077;-80
2021/05/29 09:27:28;;;;;;;1.65;1.00;;;;;;;;;;5025448;28;20022;-81
2021/05/29 09:29:54;;;;;;;1.85;1.50;;;;;;;;;;5025126;28;20034;-81
2021/05/29 09:32:20;;;;;;;4.95;1.20;;;;;;;;;;5011899;28;20018;-81
2021/05/29 09:34:53;;;;;;;1.25;1.15;;;;;;;;;;5009105;28;20030;-80
2021/05/29 09:37:19;;;;;;;2.25;1.00;;;;;;;;;;5009698;28;20517;-81
2021/05/29 09:39:49;;;;;;;2.38;1.17;;;;;;;;;;5008997;28;20542;-80
2021/05/29 09:42:16;;;;;;;1.05;0.90;;;;;;;;;;5009418;28;20032;-81
2021/05/29 09:44:42;;;;;;;0.98;0.98;;;;;;;;;;5008918;28;20438;-82
2021/05/29 09:47:12;;;;;;;1.85;0.90;;;;;;;;;;5007756;28;20053;-80
2021/05/29 09:49:53;;;;;;;2.28;1.20;;;;;;;;;;5007563;28;20086;-81
2021/05/29 09:52:39;;;;;;;2.25;1.13;;;;;;;;;;5041176;28;20044;-80
2021/05/29 09:55:13;;;;;;;1.00;1.00;;;;;;;;;;5030108;28;20057;-80
2021/05/29 09:57:50;;;;;;;0.95;0.95;;;;;;;;;;5029718;28;20037;-80
2021/05/29 10:00:16;;;;;;;1.38;0.88;;;;;;;;;;5028753;28;20037;-81
2021/05/29 10:03:01;;;;;;;0.85;0.85;;;;;;;;;;5011902;28;20039;-81
2021/05/29 10:05:28;;;;;;;1.35;1.25;;;;;;;;;;4991044;28;20026;-81
2021/05/29 10:07:55;;;;;;;3.90;1.10;;;;;;;;;;4995382;28;20051;-81
2021/05/29 10:10:21;;;;;;;3.38;1.48;;;;;;;;;;4996204;28;20026;-80
2021/05/29 10:12:47;;;;;;;2.10;1.35;;;;;;;;;;5025872;28;20030;-80
2021/05/29 10:15:14;;;;;;;1.20;1.10;;;;;;;;;;5031620;28;20036;-80
2021/05/29 10:17:40;;;;;;;2.00;1.42;;;;;;;;;;5031662;28;20033;-79
2021/05/29 10:20:08;;;;;;;1.73;1.30;;;;;;;;;;5031119;28;20037;-80
2021/05/29 10:22:34;;;;;;;2.67;1.38;;;;;;;;;;5020608;28;20165;-80
2021/05/29 10:25:01;;;;;;;1.40;1.30;;;;;;;;;;5011182;28;20106;-80
2021/05/29 10:27:30;;;;;;;3.33;1.38;;;;;;;;;;5010265;28;20049;-80
2021/05/29 10:29:58;;;;;;;1.40;1.30;;;;;;;;;;5011928;28;20022;-80
2021/05/29 10:32:25;;;;;;;1.80;1.40;;;;;;;;;;5025950;28;20029;-80
2021/05/29 10:34:51;;;;;;;2.08;1.67;;;;;;;;;;5018092;28;20060;-79
2021/05/29 10:37:26;;;;;;;1.90;1.80;;;;;;;;;;5008463;28;20073;-82
2021/05/29 10:39:52;;;;;;;2.15;1.30;;;;;;;;;;5024602;28;20549;-80
2021/05/29 10:42:31;;;;;;;1.92;1.13;;;;;;;;;;5012862;28;20022;-80
2021/05/29 10:45:18;;;;;;;1.30;1.20;;;;;;;;;;5027996;28;20065;-80
2021/05/29 10:48:16;;;;;;;3.83;1.10;;;;;;;;;;5030222;28;20121;-80
2021/05/29 10:53:43;;;;;;;2.92;1.20;;;;;;;;;;5031105;28;20041;-81
2021/05/29 10:56:18;;;;;;;2.38;1.10;;;;;;;;;;5047013;28;20032;-81
2021/05/29 10:59:22;;;;;;;1.40;1.30;;;;;;;;;;5046627;28;20041;-80
2021/05/29 11:01:48;;;;;;;1.92;1.10;;;;;;;;;;5021023;28;20026;-80
2021/05/29 11:04:18;;;;;;;2.00;1.27;;;;;;;;;;5011393;28;20030;-81
2021/05/29 11:06:47;;;;;;;0.88;0.85;;;;;;;;;;5012079;28;20030;-81
2021/05/29 11:09:14;;;;;;;1.75;1.08;;;;;;;;;;5011747;28;20023;-81
2021/05/29 11:14:06;;;;;;;1.20;1.10;;;;;;;;;;5010905;28;20038;-80
2021/05/29 11:16:48;;;;;;;1.33;0.98;;;;;;;;;;5011268;28;20056;-81
2021/05/29 11:19:15;;;;;;;0.70;0.70;;;;;;;;;;5011193;28;20022;-81
2021/05/29 11:21:59;;;;;;;2.25;0.90;;;;;;;;;;5015044;28;20022;-81
2021/05/29 11:24:26;;;;;;;1.40;1.23;;;;;;;;;;5028945;28;20030;-80
2021/05/29 11:26:52;;;;;;;2.38;1.38;;;;;;;;;;5029661;28;20108;-80
2021/05/29 11:29:19;;;;;;;1.23;1.15;;;;;;;;;;5027456;28;20022;-80
2021/05/29 11:31:46;;;;;;;2.25;1.10;;;;;;;;;;5042839;28;20025;-80
2021/05/29 11:34:13;;;;;;;2.03;1.25;;;;;;;;;;5000253;28;20038;-80
2021/05/29 11:36:44;;;;;;;2.45;1.13;;;;;;;;;;5008482;28;20027;-80
2021/05/29 11:39:11;;;;;;;3.17;1.10;;;;;;;;;;5025271;28;20018;-80
2021/05/29 11:41:37;;;;;;;1.02;1.02;;;;;;;;;;5010328;28;20548;-82
2021/05/29 11:44:06;;;;;;;2.22;1.10;;;;;;;;;;5024655;28;20026;-80
2021/05/29 11:46:32;;;;;;;2.17;1.27;;;;;;;;;;5010984;28;20026;-80
2021/05/29 11:49:01;;;;;;;3.03;1.08;;;;;;;;;;5008188;28;20030;-79
2021/05/29 11:51:28;;;;;;;1.92;1.20;;;;;;;;;;5017849;28;20037;-80
2021/05/29 11:53:55;;;;;;;1.13;0.68;;;;;;;;;;5028038;28;20030;-80
2021/05/29 11:56:31;;;;;;;0.73;0.73;;;;;;;;;;5028132;28;20029;-80
2021/05/29 11:58:57;;;;;;;2.88;1.02;;;;;;;;;;5027581;28;20034;-79
2021/05/29 12:01:25;;;;;;;4.43;1.20;;;;;;;;;;5023021;28;20101;-79
2021/05/29 12:03:57;;;;;;;1.48;0.95;;;;;;;;;;5003621;28;20090;-80
2021/05/29 12:06:35;;;;;;;0.70;0.70;;;;;;;;;;4988193;28;20031;-80
2021/05/29 12:09:03;;;;;;;1.02;1.02;;;;;;;;;;4994055;28;20030;-80
2021/05/29 12:11:30;;;;;;;1.83;1.08;;;;;;;;;;5009409;28;20076;-81
2021/05/29 12:14:05;;;;;;;1.83;0.80;;;;;;;;;;5029678;28;20041;-81
2021/05/29 12:16:36;;;;;;;2.28;1.13;;;;;;;;;;5013201;28;20022;-79
2021/05/29 12:19:13;;;;;;;1.35;0.98;;;;;;;;;;5017854;28;20538;-79
2021/05/29 12:21:51;;;;;;;1.58;1.00;;;;;;;;;;5043981;28;20057;-80
2021/05/29 12:24:18;;;;;;;1.38;0.77;;;;;;;;;;5045657;28;20036;-80
2021/05/29 12:26:45;;;;;;;3.25;0.85;;;;;;;;;;5042783;28;20098;-81
2021/05/29 12:29:12;;;;;;;4.93;1.30;;;;;;;;;;5032629;28;20046;-81
2021/05/29 12:31:45;;;;;;;1.05;0.70;;;;;;;;;;5035333;28;20041;-81
2021/05/29 12:34:11;;;;;;;0.80;0.80;;;;;;;;;;5025195;28;20033;-81
2021/05/29 12:36:53;;;;;;;1.00;0.90;;;;;;;;;;5028721;28;20046;-82
2021/05/29 12:39:19;;;;;;;0.50;0.50;;;;;;;;;;5019001;28;20022;-81
2021/05/29 12:41:45;;;;;;;1.42;0.77;;;;;;;;;;5030372;28;20033;-81
2021/05/29 12:44:11;;;;;;;1.33;0.75;;;;;;;;;;5045447;28;20093;-81
2021/05/29 12:46:39;;;;;;;0.80;0.80;;;;;;;;;;5031570;28;20026;-81
2021/05/29 12:49:08;;;;;;;0.80;0.80;;;;;;;;;;5040654;28;20115;-79
2021/05/29 12:51:42;;;;;;;2.45;0.80;;;;;;;;;;5009415;28;20014;-80
2021/05/29 12:54:08;;;;;;;1.25;1.05;;;;;;;;;;5008909;28;20408;-79
2021/05/29 12:56:35;;;;;;;0.68;0.68;;;;;;;;;;5024486;28;20491;-80
2021/05/29 12:59:05;;;;;;;1.30;0.80;;;;;;;;;;5009509;28;20054;-80
2021/05/29 13:09:43;;;;;;;1.95;0.60;;;;;;;;;;5027343;28;20084;-81
2021/05/29 13:12:17;;;;;;;1.30;0.60;;;;;;;;;;5046378;28;20034;-81
2021/05/29 13:14:44;;;;;;;0.90;0.70;;;;;;;;;;5030767;28;20034;-81
2021/05/29 13:17:21;;;;;;;2.85;0.85;;;;;;;;;;5030857;28;20026;-81
2021/05/29 13:20:06;;;;;;;0.95;0.90;;;;;;;;;;5029143;28;20031;-81
2021/05/29 13:22:36;;;;;;;1.02;0.90;;;;;;;;;;5025616;28;20108;-80
2021/05/29 13:25:04;;;;;;;1.00;1.00;;;;;;;;;;5009999;28;20042;-80
2021/05/29 13:27:34;;;;;;;1.40;0.80;;;;;;;;;;5012271;28;20066;-81
2021/05/29 13:30:06;;;;;;;2.85;1.10;;;;;;;;;;5042447;28;20449;-80
2021/05/29 13:32:32;;;;;;;2.30;1.02;;;;;;;;;;5039084;28;20030;-80
2021/05/29 13:34:58;;;;;;;0.80;0.80;;;;;;;;;;5011947;28;20033;-79
2021/05/29 13:37:24;;;;;;;1.10;0.95;;;;;;;;;;5007173;28;20086;-79
2021/05/29 13:39:51;;;;;;;1.38;1.25;;;;;;;;;;5007368;28;20034;-80
2021/05/29 13:42:17;;;;;;;0.95;0.82;;;;;;;;;;5022722;28;20041;-81
2021/05/29 13:44:43;;;;;;;0.93;0.80;;;;;;;;;;5032108;28;20021;-79
2021/05/29 13:47:10;;;;;;;0.75;0.60;;;;;;;;;;5011258;28;20022;-79
2021/05/29 13:49:36;;;;;;;0.73;0.63;;;;;;;;;;5029170;28;20045;-79
2021/05/29 13:52:03;;;;;;;0.95;0.60;;;;;;;;;;5029496;28;20057;-79
2021/05/29 13:54:29;;;;;;;1.23;0.90;;;;;;;;;;5031734;28;20093;-80
2021/05/29 13:56:56;;;;;;;1.08;0.80;;;;;;;;;;5032101;28;20029;-79
2021/05/29 13:59:22;;;;;;;1.00;0.70;;;;;;;;;;5055044;23;20042;-81
2021/05/29 14:01:48;;;;;;;0.73;0.73;;;;;;;;;;5027353;28;20026;-80
2021/05/29 14:04:17;;;;;;;1.58;0.80;;;;;;;;;;5033811;28;20045;-80
2021/05/29 14:06:43;;;;;;;0.60;0.55;;;;;;;;;;5043449;28;20073;-80
2021/05/29 14:09:09;;;;;;;0.60;0.60;;;;;;;;;;5042776;28;20112;-81
2021/05/29 14:11:39;;;;;;;0.73;0.73;;;;;;;;;;5043878;28;20652;-81
2021/05/29 14:14:05;;;;;;;0.60;0.60;;;;;;;;;;5051188;28;20030;-80
2021/05/29 14:16:31;;;;;;;0.85;0.55;;;;;;;;;;5064568;28;20029;-79
2021/05/29 14:18:58;;;;;;;0.60;0.60;;;;;;;;;;5046433;28;20026;-79
2021/05/29 14:21:25;;;;;;;1.05;0.70;;;;;;;;;;5031320;28;20141;-80
2021/05/29 14:23:51;;;;;;;1.88;0.80;;;;;;;;;;5045677;28;20030;-79
2021/05/29 14:26:18;;;;;;;1.02;0.70;;;;;;;;;;5045030;28;20052;-79
2021/05/29 14:28:45;;;;;;;1.20;0.85;;;;;;;;;;5050887;28;20032;-79
2021/05/29 14:31:11;;;;;;;1.48;1.33;;;;;;;;;;5049580;28;20300;-79
2021/05/29 14:33:39;;;;;;;0.95;0.68;;;;;;;;;;5042468;28;20029;-81
2021/05/29 14:36:06;;;;;;;1.25;1.15;;;;;;;;;;5068638;28;20017;-81
2021/05/29 14:38:32;;;;;;;1.25;0.80;;;;;;;;;;5063189;28;20022;-81
2021/05/29 14:40:59;;;;;;;2.38;1.73;;;;;;;;;;5043944;28;20021;-80
2021/05/29 14:43:25;;;;;;;1.02;0.80;;;;;;;;;;5057222;28;20025;-80
2021/05/29 14:45:51;;;;;;;2.78;1.20;;;;;;;;;;5025571;28;20049;-81
2021/05/29 14:48:17;;;;;;;0.85;0.80;;;;;;;;;;5027679;28;20038;-81
2021/05/29 14:50:50;;;;;;;0.85;0.80;;;;;;;;;;5048695;28;20033;-81
2021/05/29 14:53:17;;;;;;;1.63;0.93;;;;;;;;;;5035507;28;20057;-81
2021/05/29 14:55:44;;;;;;;1.10;1.00;;;;;;;;;;5028196;28;20034;-81
2021/05/29 14:58:10;;;;;;;1.13;0.80;;;;;;;;;;5050341;28;20026;-81
2021/05/29 15:00:37;;;;;;;0.60;0.55;;;;;;;;;;5028869;28;20026;-81
2021/05/29 15:03:07;;;;;;;1.42;0.80;;;;;;;;;;5051796;28;20021;-82
2021/05/29 15:05:34;;;;;;;0.70;0.70;;;;;;;;;;5031536;28;20034;-80
2021/05/29 15:08:00;;;;;;;1.42;1.13;;;;;;;;;;5023521;28;20026;-83
2021/05/29 15:10:26;;;;;;;1.55;1.00;;;;;;;;;;5023821;28;20029;-81